Time;durP1;ratioP1;P1;durP2;ratioP2;P2;SDS_P1;SDS_P2;PMS_P1;PMS_P2;Temp;Humidity;BMP_temperature;BMP_pressure;BME280_temperature;BME280_humidity;BME280_pressure;Samples;Min_cycle;Max_cycle;Signal;HPM_P1;HPM_P2
2022/06/26 00:00:20;;;;;;;2.50;0.80;;;20.70;99.90;;;;;;5037571;28;20195;-68
2022/06/26 00:02:47;;;;;;;2.57;0.87;;;20.50;99.90;;;;;;5038960;28;20209;-68
2022/06/26 00:05:13;;;;;;;0.80;0.70;;;20.30;99.90;;;;;;5037645;28;20689;-66
2022/06/26 00:07:40;;;;;;;2.17;1.00;;;20.30;99.90;;;;;;5045068;28;20649;-66
2022/06/26 00:10:07;;;;;;;1.57;1.20;;;20.20;99.90;;;;;;5036786;28;20630;-66
2022/06/26 00:12:35;;;;;;;2.57;1.33;;;20.10;99.90;;;;;;5037891;28;20202;-66
2022/06/26 00:15:02;;;;;;;1.40;1.03;;;20.10;99.90;;;;;;5036824;28;20234;-66
2022/06/26 00:17:28;;;;;;;2.50;1.20;;;20.10;99.90;;;;;;5037363;28;20215;-67
2022/06/26 00:19:55;;;;;;;2.35;1.80;;;20.20;99.90;;;;;;5039891;28;20197;-66
2022/06/26 00:22:22;;;;;;;2.33;1.87;;;20.20;99.90;;;;;;5049464;28;20202;-66
2022/06/26 00:24:48;;;;;;;3.90;1.73;;;20.10;99.90;;;;;;5037724;28;20711;-66
2022/06/26 00:27:15;;;;;;;2.97;1.70;;;20.10;99.90;;;;;;5035254;28;20195;-66
2022/06/26 00:29:42;;;;;;;2.37;1.70;;;20.20;99.90;;;;;;5038649;28;20685;-66
2022/06/26 00:32:08;;;;;;;4.32;1.85;;;20.20;99.90;;;;;;5035987;28;20670;-66
2022/06/26 00:34:35;;;;;;;2.17;1.80;;;20.20;99.90;;;;;;5038126;28;20225;-66
2022/06/26 00:37:02;;;;;;;1.87;1.63;;;20.20;99.90;;;;;;5038138;28;20216;-66
2022/06/26 00:39:29;;;;;;;3.50;2.37;;;20.20;99.90;;;;;;5038044;28;20195;-66
2022/06/26 00:41:55;;;;;;;2.28;2.03;;;20.20;99.90;;;;;;5036954;28;20199;-66
2022/06/26 00:44:24;;;;;;;2.95;2.00;;;20.20;99.90;;;;;;5041120;28;20219;-66
2022/06/26 00:46:52;;;;;;;2.42;2.00;;;20.30;99.90;;;;;;5035461;28;20218;-66
2022/06/26 00:49:19;;;;;;;2.67;1.67;;;20.40;99.90;;;;;;5036407;28;20199;-66
2022/06/26 00:51:55;;;;;;;2.42;2.00;;;20.50;99.90;;;;;;5036770;28;20194;-66
2022/06/26 00:54:24;;;;;;;2.53;1.80;;;20.50;99.90;;;;;;5035494;28;20242;-66
2022/06/26 00:56:51;;;;;;;2.75;1.98;;;20.60;99.90;;;;;;5035411;28;20214;-66
2022/06/26 00:59:18;;;;;;;2.20;2.00;;;20.70;99.90;;;;;;5035825;28;20218;-66
2022/06/26 01:01:44;;;;;;;1.67;1.58;;;20.60;99.90;;;;;;5036870;28;20198;-66
2022/06/26 01:04:11;;;;;;;2.03;1.83;;;20.60;99.90;;;;;;5032403;28;20252;-66
2022/06/26 01:06:38;;;;;;;1.70;1.60;;;20.50;99.90;;;;;;5045760;28;20198;-66
2022/06/26 01:09:04;;;;;;;1.70;1.60;;;20.50;99.90;;;;;;5035346;28;20196;-66
2022/06/26 01:11:31;;;;;;;2.03;1.83;;;20.50;99.90;;;;;;5035699;28;20215;-68
2022/06/26 01:13:58;;;;;;;2.17;1.98;;;20.50;99.90;;;;;;5035049;28;20198;-69
2022/06/26 01:16:25;;;;;;;2.80;1.88;;;20.50;99.90;;;;;;5035902;28;20226;-69
2022/06/26 01:18:54;;;;;;;3.42;2.00;;;20.50;99.90;;;;;;5035732;28;20206;-67
2022/06/26 01:21:22;;;;;;;2.45;1.80;;;20.50;99.90;;;;;;5033111;28;20609;-66
2022/06/26 01:23:49;;;;;;;2.58;2.08;;;20.50;99.90;;;;;;5034891;28;20206;-66
2022/06/26 01:26:18;;;;;;;1.90;1.80;;;20.50;99.90;;;;;;5036934;28;20263;-66
2022/06/26 01:28:45;;;;;;;2.20;1.95;;;20.50;99.90;;;;;;5033352;28;20191;-66
2022/06/26 01:31:12;;;;;;;2.95;2.00;;;20.50;99.90;;;;;;5034222;28;20199;-66
2022/06/26 01:33:38;;;;;;;2.28;2.03;;;20.50;99.90;;;;;;5036479;28;20206;-66
2022/06/26 01:36:06;;;;;;;1.98;1.80;;;20.50;99.90;;;;;;5034391;28;20221;-66
2022/06/26 01:38:32;;;;;;;2.10;1.90;;;20.50;99.90;;;;;;5036588;28;20222;-66
2022/06/26 01:40:59;;;;;;;1.95;1.77;;;20.50;99.90;;;;;;5038597;28;20658;-66
2022/06/26 01:43:30;;;;;;;5.53;1.60;;;20.50;99.90;;;;;;5033488;28;20202;-66
2022/06/26 01:45:58;;;;;;;3.75;1.98;;;20.40;99.90;;;;;;5033652;28;20230;-66
2022/06/26 01:48:26;;;;;;;2.28;1.90;;;20.40;99.90;;;;;;5039242;28;20217;-66
2022/06/26 01:50:55;;;;;;;2.08;1.88;;;20.30;99.90;;;;;;5034849;28;20206;-66
2022/06/26 01:53:22;;;;;;;2.10;1.88;;;20.30;99.90;;;;;;5032513;28;20221;-66
2022/06/26 01:55:50;;;;;;;2.10;1.90;;;20.40;99.90;;;;;;5032252;28;20218;-66
2022/06/26 01:58:17;;;;;;;2.30;2.08;;;20.40;99.90;;;;;;5034773;28;20226;-66
2022/06/26 02:00:45;;;;;;;2.80;2.20;;;20.30;99.90;;;;;;5044955;28;20199;-66
2022/06/26 02:03:13;;;;;;;2.35;2.15;;;20.30;99.90;;;;;;5037668;28;20199;-66
2022/06/26 02:05:39;;;;;;;2.10;1.90;;;20.20;99.90;;;;;;5040664;28;20211;-66
2022/06/26 02:08:06;;;;;;;4.45;2.13;;;20.10;99.90;;;;;;5038336;28;20192;-66
2022/06/26 02:13:37;;;;;;;4.67;1.90;;;19.80;99.90;;;;;;5036336;28;20195;-66
2022/06/26 02:16:34;;;;;;;2.83;1.80;;;19.70;99.90;;;;;;5042532;28;20646;-66
2022/06/26 02:19:01;;;;;;;2.50;2.07;;;19.60;99.90;;;;;;5032836;28;20195;-68
2022/06/26 02:21:28;;;;;;;2.20;1.90;;;19.50;99.90;;;;;;5038010;28;20196;-68
2022/06/26 02:23:56;;;;;;;2.33;1.87;;;19.40;99.90;;;;;;5039114;28;20195;-67
2022/06/26 02:26:23;;;;;;;2.20;1.97;;;19.40;99.90;;;;;;5037495;28;20207;-69
2022/06/26 02:28:50;;;;;;;3.57;1.90;;;19.40;99.90;;;;;;5038309;28;20191;-68
2022/06/26 02:31:17;;;;;;;3.40;2.00;;;19.40;99.90;;;;;;5036731;28;20222;-68
2022/06/26 02:33:44;;;;;;;2.53;2.00;;;19.30;99.90;;;;;;5038655;28;20219;-68
2022/06/26 02:36:10;;;;;;;2.67;1.87;;;19.20;99.90;;;;;;5036601;28;20712;-68
2022/06/26 02:38:38;;;;;;;2.40;1.80;;;19.20;99.90;;;;;;5043806;28;20431;-68
2022/06/26 02:41:05;;;;;;;1.93;1.70;;;19.20;99.90;;;;;;5036524;28;20202;-68
2022/06/26 02:43:33;;;;;;;2.77;2.00;;;19.20;99.90;;;;;;5036471;28;20199;-68
2022/06/26 02:45:59;;;;;;;2.60;1.80;;;19.20;99.90;;;;;;5036513;28;20211;-68
2022/06/26 02:48:26;;;;;;;2.93;1.80;;;19.30;99.90;;;;;;5034711;28;20203;-68
2022/06/26 02:50:53;;;;;;;2.93;1.83;;;19.30;99.90;;;;;;5035179;28;20196;-68
2022/06/26 02:53:20;;;;;;;2.87;2.00;;;19.20;99.90;;;;;;5040087;28;20226;-68
2022/06/26 02:55:47;;;;;;;2.17;1.73;;;19.20;99.90;;;;;;5033892;28;20210;-68
2022/06/26 02:58:13;;;;;;;5.23;2.00;;;19.30;99.90;;;;;;5036007;28;20223;-68
2022/06/26 03:00:41;;;;;;;3.33;2.30;;;19.30;99.90;;;;;;5037813;28;20195;-68
2022/06/26 03:03:07;;;;;;;2.57;1.90;;;19.20;99.90;;;;;;5034092;28;20580;-68
2022/06/26 03:05:34;;;;;;;7.43;1.80;;;19.30;99.90;;;;;;5037491;28;20220;-68
2022/06/26 03:08:01;;;;;;;3.33;1.83;;;19.20;99.90;;;;;;5033479;28;20206;-69
2022/06/26 03:10:28;;;;;;;2.70;1.73;;;19.10;99.90;;;;;;5036004;28;20214;-68
2022/06/26 03:12:54;;;;;;;3.03;2.17;;;19.00;99.90;;;;;;5038226;28;20198;-68
2022/06/26 03:15:22;;;;;;;3.53;1.87;;;19.10;99.90;;;;;;5039091;28;20224;-68
2022/06/26 03:17:48;;;;;;;3.37;1.90;;;19.10;99.90;;;;;;5035013;28;20219;-68
2022/06/26 03:20:19;;;;;;;3.17;1.90;;;19.10;99.90;;;;;;5035433;28;20191;-69
2022/06/26 03:22:47;;;;;;;4.80;1.90;;;19.00;99.90;;;;;;5036262;28;20191;-68
2022/06/26 03:25:15;;;;;;;3.23;1.40;;;19.00;99.90;;;;;;5034931;28;20607;-68
2022/06/26 03:27:42;;;;;;;1.80;1.70;;;18.80;99.90;;;;;;5036575;28;20470;-68
2022/06/26 03:30:10;;;;;;;2.57;1.90;;;18.70;99.90;;;;;;5034837;28;20195;-69
2022/06/26 03:32:37;;;;;;;3.33;1.60;;;18.60;99.90;;;;;;5036421;28;20204;-68
2022/06/26 03:35:04;;;;;;;3.27;1.40;;;18.70;99.90;;;;;;5035040;28;20222;-68
2022/06/26 03:37:31;;;;;;;1.50;1.40;;;18.70;99.90;;;;;;5035408;28;20223;-68
2022/06/26 03:39:58;;;;;;;1.50;1.40;;;18.70;99.90;;;;;;5034883;28;20191;-68
2022/06/26 03:42:25;;;;;;;2.73;1.70;;;18.70;99.90;;;;;;5039598;28;20245;-69
2022/06/26 03:44:52;;;;;;;1.63;1.40;;;18.60;99.90;;;;;;5034088;28;20206;-68
2022/06/26 03:47:19;;;;;;;2.97;1.90;;;18.60;99.90;;;;;;5034455;28;20195;-68
2022/06/26 03:49:46;;;;;;;2.23;1.33;;;18.70;99.90;;;;;;5035532;28;20203;-68
2022/06/26 03:52:13;;;;;;;1.83;1.27;;;18.80;99.90;;;;;;5037724;28;20206;-68
2022/06/26 03:54:40;;;;;;;1.60;1.50;;;18.80;99.90;;;;;;5036728;28;20215;-68
2022/06/26 03:57:06;;;;;;;1.70;1.33;;;18.80;99.90;;;;;;5038598;28;20215;-68
2022/06/26 03:59:34;;;;;;;2.77;1.40;;;19.00;99.90;;;;;;5037561;28;20685;-70
2022/06/26 04:02:00;;;;;;;1.50;1.40;;;19.00;99.90;;;;;;5033109;28;20196;-68
2022/06/26 04:04:27;;;;;;;1.47;1.30;;;19.00;99.90;;;;;;5034381;28;20215;-69
2022/06/26 04:06:54;;;;;;;2.43;1.30;;;19.00;99.90;;;;;;5033453;28;20206;-68
2022/06/26 04:09:21;;;;;;;3.60;1.50;;;19.00;99.90;;;;;;5033673;28;20188;-68
2022/06/26 04:11:47;;;;;;;1.53;1.30;;;19.10;99.90;;;;;;5034272;28;20195;-69
2022/06/26 04:14:14;;;;;;;2.43;1.50;;;19.20;99.90;;;;;;5033596;28;20215;-68
2022/06/26 04:16:41;;;;;;;1.97;1.30;;;19.50;99.90;;;;;;5033445;28;20195;-68
2022/06/26 04:19:08;;;;;;;2.03;1.40;;;19.60;99.90;;;;;;5032061;28;20195;-68
2022/06/26 04:21:34;;;;;;;1.43;1.23;;;19.50;99.90;;;;;;5035205;28;20194;-68
2022/06/26 04:24:01;;;;;;;3.43;1.27;;;19.60;99.90;;;;;;5039611;28;20195;-68
2022/06/26 04:26:28;;;;;;;1.10;1.00;;;19.70;99.90;;;;;;5033639;28;20639;-68
2022/06/26 04:28:54;;;;;;;3.03;1.30;;;19.80;99.90;;;;;;5033414;28;20570;-68
2022/06/26 04:31:21;;;;;;;2.13;1.30;;;19.80;99.90;;;;;;5033070;28;20199;-68
2022/06/26 04:33:48;;;;;;;1.63;1.10;;;19.80;99.90;;;;;;5033725;28;20199;-68
2022/06/26 04:36:15;;;;;;;1.60;1.10;;;19.80;99.90;;;;;;5034393;28;20224;-68
2022/06/26 04:38:41;;;;;;;2.77;1.40;;;19.80;99.90;;;;;;5034785;28;20238;-68
2022/06/26 04:43:53;;;;;;;1.50;1.10;;;19.70;99.90;;;;;;5031959;28;20194;-66
2022/06/26 04:46:20;;;;;;;5.70;1.63;;;19.70;99.90;;;;;;5032523;28;20195;-66
2022/06/26 04:48:47;;;;;;;3.53;1.30;;;19.70;99.90;;;;;;5033306;28;20226;-65
2022/06/26 04:51:13;;;;;;;1.73;1.37;;;19.80;99.90;;;;;;5033865;28;20226;-66
2022/06/26 04:53:40;;;;;;;1.83;1.40;;;19.90;99.90;;;;;;5039919;28;20194;-66
2022/06/26 04:56:07;;;;;;;2.72;1.60;;;20.00;99.90;;;;;;5031938;28;20720;-66
2022/06/26 04:58:34;;;;;;;1.95;1.58;;;20.10;99.90;;;;;;5031519;28;20227;-66
2022/06/26 05:01:02;;;;;;;1.83;1.60;;;20.20;99.90;;;;;;5035674;28;20278;-67
2022/06/26 05:03:29;;;;;;;2.58;1.40;;;20.20;99.90;;;;;;5031646;28;20196;-66
2022/06/26 05:05:57;;;;;;;3.38;1.55;;;20.30;99.90;;;;;;5030954;28;20265;-66
2022/06/26 05:08:24;;;;;;;2.15;1.42;;;20.40;99.90;;;;;;5031664;28;20583;-67
2022/06/26 05:10:51;;;;;;;1.73;1.45;;;20.50;99.90;;;;;;5031787;28;20699;-66
2022/06/26 05:13:17;;;;;;;1.63;1.40;;;20.70;99.90;;;;;;5030100;28;20196;-66
2022/06/26 05:15:46;;;;;;;1.75;1.48;;;20.80;99.90;;;;;;5031763;28;20606;-66
2022/06/26 05:18:14;;;;;;;2.40;1.40;;;21.10;99.90;;;;;;5031189;28;20222;-66
2022/06/26 05:20:41;;;;;;;2.65;1.30;;;21.10;99.90;;;;;;5032513;28;20468;-69
2022/06/26 05:23:09;;;;;;;3.90;1.50;;;21.20;99.90;;;;;;5029974;28;20192;-69
2022/06/26 05:25:36;;;;;;;5.07;1.98;;;21.10;99.90;;;;;;5030426;28;20223;-69
2022/06/26 05:28:02;;;;;;;5.20;1.65;;;21.20;99.90;;;;;;5031363;28;20199;-69
2022/06/26 05:30:29;;;;;;;3.65;1.52;;;21.30;99.90;;;;;;5030585;28;20195;-69
2022/06/26 05:32:56;;;;;;;2.15;1.40;;;21.40;99.90;;;;;;5037681;28;20588;-69
2022/06/26 05:35:22;;;;;;;5.22;1.60;;;21.60;99.90;;;;;;5036615;28;20246;-69
2022/06/26 05:37:49;;;;;;;2.67;1.30;;;21.70;99.90;;;;;;5032788;28;20226;-69
2022/06/26 05:40:16;;;;;;;2.42;1.23;;;21.70;99.90;;;;;;5035782;28;20196;-69
2022/06/26 05:42:43;;;;;;;1.92;1.13;;;21.50;99.90;;;;;;5030972;28;20192;-69
2022/06/26 05:45:10;;;;;;;2.08;1.10;;;21.40;99.90;;;;;;5030527;28;20217;-69
2022/06/26 05:47:37;;;;;;;5.72;1.25;;;21.30;99.90;;;;;;5030901;28;20666;-68
2022/06/26 05:50:05;;;;;;;1.60;1.10;;;21.20;99.90;;;;;;5030856;28;20661;-69
2022/06/26 05:52:33;;;;;;;3.35;1.20;;;21.10;99.90;;;;;;5028128;28;20195;-69
2022/06/26 05:54:59;;;;;;;1.88;1.25;;;21.00;99.90;;;;;;5029921;28;20294;-69
2022/06/26 05:57:26;;;;;;;2.03;1.40;;;21.00;99.90;;;;;;5030447;28;20196;-69
2022/06/26 05:59:53;;;;;;;2.45;1.33;;;20.90;99.90;;;;;;5029206;28;20198;-69
2022/06/26 06:02:19;;;;;;;2.72;1.30;;;20.80;99.90;;;;;;5029116;28;20196;-69
2022/06/26 06:04:46;;;;;;;5.07;1.33;;;20.80;99.90;;;;;;5030615;28;20218;-69
2022/06/26 06:07:17;;;;;;;2.30;1.40;;;20.90;99.90;;;;;;5034071;28;20565;-69
2022/06/26 06:09:44;;;;;;;6.13;1.70;;;20.80;99.90;;;;;;5031563;28;20664;-69
2022/06/26 06:12:11;;;;;;;3.60;1.63;;;20.90;99.90;;;;;;5029609;28;20188;-69
2022/06/26 06:14:38;;;;;;;2.50;1.50;;;20.90;99.90;;;;;;5045328;28;20222;-69
2022/06/26 06:19:50;;;;;;;1.42;1.25;;;21.20;99.90;;;;;;5029695;28;20210;-70
2022/06/26 06:22:17;;;;;;;1.50;1.30;;;21.40;99.90;;;;;;5028049;28;20196;-70
2022/06/26 06:24:44;;;;;;;2.25;1.10;;;22.10;99.90;;;;;;5029309;28;20239;-70
2022/06/26 06:27:10;;;;;;;1.70;1.20;;;22.50;99.90;;;;;;5029719;28;20675;-70
2022/06/26 06:29:37;;;;;;;2.45;1.40;;;22.80;99.90;;;;;;5037571;28;20192;-69
2022/06/26 06:32:04;;;;;;;1.10;1.00;;;23.30;99.90;;;;;;5028449;28;20200;-67
2022/06/26 06:34:31;;;;;;;3.05;1.40;;;23.40;99.90;;;;;;5029162;28;20222;-67
2022/06/26 06:36:57;;;;;;;2.08;1.10;;;23.30;99.90;;;;;;5029420;28;20570;-67
2022/06/26 06:39:24;;;;;;;4.13;1.02;;;23.70;99.90;;;;;;5029232;28;20216;-66
2022/06/26 06:41:51;;;;;;;2.17;0.93;;;23.50;99.90;;;;;;5028716;28;20203;-66
2022/06/26 06:44:17;;;;;;;0.80;0.80;;;23.50;99.90;;;;;;5030592;28;20557;-66
2022/06/26 06:46:44;;;;;;;2.13;1.00;;;23.10;99.90;;;;;;5032785;28;20196;-67
2022/06/26 06:49:11;;;;;;;1.27;1.08;;;23.10;99.90;;;;;;5032350;28;20199;-67
2022/06/26 06:51:37;;;;;;;1.73;0.90;;;23.20;99.90;;;;;;5032095;28;20234;-67
2022/06/26 06:54:04;;;;;;;1.10;1.00;;;23.30;99.90;;;;;;5035624;28;20195;-67
2022/06/26 06:56:31;;;;;;;2.28;1.05;;;23.00;99.90;;;;;;5034780;28;20199;-67
2022/06/26 06:58:58;;;;;;;1.73;1.15;;;23.20;99.90;;;;;;5033712;28;20228;-67
2022/06/26 07:01:25;;;;;;;1.92;1.10;;;23.20;99.90;;;;;;5036526;28;20212;-67
2022/06/26 07:03:51;;;;;;;4.10;1.30;;;23.30;99.90;;;;;;5032011;28;20206;-67
2022/06/26 07:06:18;;;;;;;1.42;1.08;;;23.30;99.90;;;;;;5032412;28;20191;-67
2022/06/26 07:08:45;;;;;;;2.47;1.20;;;23.80;99.90;;;;;;5040170;28;20195;-67
2022/06/26 07:11:11;;;;;;;1.20;0.93;;;24.30;99.90;;;;;;5044866;28;20206;-67
2022/06/26 07:13:39;;;;;;;4.80;1.08;;;24.90;99.90;;;;;;5034223;28;20200;-67
2022/06/26 07:16:05;;;;;;;2.45;0.80;;;25.70;99.90;;;;;;5033500;28;20230;-69
2022/06/26 07:18:32;;;;;;;1.30;0.90;;;26.60;99.90;;;;;;5031875;28;20315;-70
2022/06/26 07:20:59;;;;;;;1.00;0.90;;;27.20;99.90;;;;;;5031026;28;20196;-70
2022/06/26 07:23:26;;;;;;;2.17;0.93;;;27.80;99.90;;;;;;5031103;28;20203;-69
2022/06/26 07:25:52;;;;;;;1.88;0.80;;;28.20;99.90;;;;;;5033392;28;20222;-70
2022/06/26 07:28:19;;;;;;;0.80;0.80;;;28.20;99.90;;;;;;5050869;28;20711;-69
2022/06/26 07:30:46;;;;;;;2.92;0.90;;;28.20;99.90;;;;;;5044946;28;20195;-69
2022/06/26 07:35:58;;;;;;;4.55;0.90;;;28.60;99.90;;;;;;5050246;28;20226;-69
2022/06/26 07:38:28;;;;;;;1.10;0.80;;;28.70;99.90;;;;;;5050795;28;20225;-69
2022/06/26 07:40:55;;;;;;;1.33;0.88;;;28.80;99.90;;;;;;5041428;28;20200;-69
2022/06/26 07:43:22;;;;;;;1.42;1.00;;;28.30;99.90;;;;;;5050384;28;20195;-69
2022/06/26 07:45:49;;;;;;;0.88;0.88;;;28.20;99.90;;;;;;5050619;28;20218;-69
2022/06/26 07:48:16;;;;;;;1.40;0.90;;;28.10;99.90;;;;;;5047814;28;20198;-70
2022/06/26 07:50:43;;;;;;;2.00;0.82;;;28.20;99.90;;;;;;5050230;28;20199;-69
2022/06/26 07:53:10;;;;;;;0.95;0.80;;;28.50;99.90;;;;;;5048956;28;20691;-70
2022/06/26 07:55:36;;;;;;;1.20;1.00;;;28.50;99.90;;;;;;5049301;28;20723;-69
2022/06/26 07:58:08;;;;;;;1.20;0.90;;;28.30;99.90;;;;;;5043640;28;20211;-69
2022/06/26 08:00:35;;;;;;;0.85;0.82;;;27.80;99.90;;;;;;5050471;28;20209;-69
2022/06/26 08:03:10;;;;;;;2.45;0.95;;;27.60;99.90;;;;;;5049659;28;20193;-69
2022/06/26 08:05:37;;;;;;;2.45;1.10;;;27.30;99.90;;;;;;5043738;28;20214;-69
2022/06/26 08:08:05;;;;;;;2.25;1.02;;;27.30;99.90;;;;;;5039854;28;20198;-69
2022/06/26 08:10:34;;;;;;;3.90;1.05;;;27.30;99.90;;;;;;5049888;28;20206;-69
2022/06/26 08:13:02;;;;;;;1.40;1.00;;;27.40;99.90;;;;;;5049084;28;20589;-69
2022/06/26 08:15:29;;;;;;;1.67;0.98;;;27.50;99.90;;;;;;5041790;28;20242;-69
2022/06/26 08:17:56;;;;;;;2.97;1.13;;;27.20;99.90;;;;;;5048862;28;20211;-69
2022/06/26 08:20:23;;;;;;;1.40;1.00;;;27.20;99.90;;;;;;5048037;28;20191;-71
2022/06/26 08:22:50;;;;;;;3.00;1.10;;;27.30;99.90;;;;;;5045859;28;20561;-69
2022/06/26 08:25:17;;;;;;;1.92;0.98;;;27.30;99.90;;;;;;5049412;28;20214;-69
2022/06/26 08:27:44;;;;;;;1.30;1.10;;;27.00;99.90;;;;;;5048939;28;20191;-69
2022/06/26 08:30:11;;;;;;;3.72;1.15;;;26.80;99.90;;;;;;5048323;28;20202;-69
2022/06/26 08:32:41;;;;;;;1.25;1.15;;;27.00;99.90;;;;;;5040815;28;20235;-69
2022/06/26 08:35:10;;;;;;;1.48;0.90;;;27.10;99.90;;;;;;5049183;28;20310;-69
2022/06/26 08:37:37;;;;;;;1.38;1.00;;;27.20;99.90;;;;;;5048773;28;20214;-69
2022/06/26 08:40:05;;;;;;;1.17;1.00;;;27.20;99.90;;;;;;5042087;28;20219;-69
2022/06/26 08:42:31;;;;;;;3.53;1.10;;;27.40;99.90;;;;;;5045540;28;20207;-69
2022/06/26 08:45:00;;;;;;;4.40;1.10;;;27.30;99.90;;;;;;5047674;28;20211;-69
2022/06/26 08:47:31;;;;;;;1.70;1.10;;;27.30;99.90;;;;;;5048567;28;20206;-69
2022/06/26 08:50:00;;;;;;;1.27;0.93;;;27.50;99.90;;;;;;5033003;28;20191;-69
2022/06/26 08:52:29;;;;;;;2.53;1.00;;;27.50;99.90;;;;;;5042671;28;20207;-69
2022/06/26 08:54:57;;;;;;;1.55;1.05;;;27.50;99.90;;;;;;5047127;28;20498;-69
2022/06/26 08:57:25;;;;;;;1.77;1.00;;;27.60;99.90;;;;;;5048428;28;20278;-70
2022/06/26 08:59:52;;;;;;;2.42;1.20;;;27.60;99.90;;;;;;5047057;28;20609;-68
2022/06/26 09:02:19;;;;;;;1.15;1.00;;;27.70;99.90;;;;;;5046628;28;20194;-70
2022/06/26 09:04:45;;;;;;;0.90;0.90;;;27.70;99.90;;;;;;5047075;28;20222;-69
2022/06/26 09:07:12;;;;;;;1.48;1.17;;;27.70;99.90;;;;;;5048134;28;20194;-69
2022/06/26 09:09:39;;;;;;;0.98;0.90;;;27.60;99.90;;;;;;5041638;28;20206;-70
2022/06/26 09:12:07;;;;;;;1.20;0.98;;;27.50;99.90;;;;;;5041748;28;20199;-69
2022/06/26 09:14:34;;;;;;;1.73;1.00;;;27.60;99.90;;;;;;5044372;28;20233;-69
2022/06/26 09:17:02;;;;;;;2.55;0.90;;;27.60;99.90;;;;;;5047878;28;20283;-69
2022/06/26 09:19:33;;;;;;;1.45;1.10;;;27.50;99.90;;;;;;5043053;28;20305;-68
2022/06/26 09:22:07;;;;;;;1.60;1.08;;;27.40;99.90;;;;;;5045815;28;20661;-70
2022/06/26 09:24:36;;;;;;;1.35;1.00;;;27.00;99.90;;;;;;5047193;28;20214;-69
2022/06/26 09:27:15;;;;;;;1.42;1.00;;;26.90;99.90;;;;;;5043055;28;20206;-68
2022/06/26 09:29:49;;;;;;;3.03;1.10;;;26.80;99.90;;;;;;5047237;28;20202;-70
2022/06/26 09:32:16;;;;;;;1.20;1.10;;;27.00;99.90;;;;;;5040816;28;20230;-69
2022/06/26 09:34:51;;;;;;;1.23;1.02;;;27.20;99.90;;;;;;5041087;28;20230;-69
2022/06/26 09:37:19;;;;;;;3.88;1.05;;;27.30;99.90;;;;;;5047008;28;20205;-69
2022/06/26 09:40:07;;;;;;;2.90;1.27;;;27.40;99.90;;;;;;5046475;28;20219;-69
2022/06/26 09:42:34;;;;;;;1.92;0.90;;;27.50;99.90;;;;;;5046793;28;20203;-69
2022/06/26 09:45:03;;;;;;;1.80;1.10;;;27.60;99.90;;;;;;5041996;28;20218;-70
2022/06/26 09:47:36;;;;;;;1.90;1.02;;;27.80;99.90;;;;;;5047015;28;20202;-69
2022/06/26 09:50:06;;;;;;;2.05;1.10;;;28.00;99.90;;;;;;5047165;28;20203;-69
2022/06/26 09:52:33;;;;;;;1.45;1.10;;;28.10;99.90;;;;;;5044959;28;20203;-69
2022/06/26 09:55:03;;;;;;;1.15;1.00;;;28.10;99.90;;;;;;5045584;28;20215;-69
2022/06/26 09:57:31;;;;;;;1.30;1.00;;;28.20;99.90;;;;;;5046803;28;20202;-69
2022/06/26 09:59:59;;;;;;;1.30;1.02;;;28.40;99.90;;;;;;5046049;28;20211;-69
2022/06/26 10:08:03;;;;;;;1.98;1.30;;;28.10;99.90;;;;;;5045072;28;20200;-69
2022/06/26 10:10:32;;;;;;;1.30;1.20;;;28.20;99.90;;;;;;5039242;28;20588;-69
2022/06/26 10:13:03;;;;;;;1.73;1.48;;;28.20;99.90;;;;;;5044293;28;20203;-69
2022/06/26 10:15:53;;;;;;;1.52;1.33;;;28.40;99.90;;;;;;5045807;28;20230;-69
2022/06/26 10:18:31;;;;;;;1.90;0.85;;;28.30;99.90;;;;;;5040940;28;20202;-69
2022/06/26 10:21:12;;;;;;;0.93;0.93;;;28.50;99.90;;;;;;5046312;28;20684;-70
2022/06/26 10:23:41;;;;;;;1.42;1.08;;;28.80;99.90;;;;;;5050291;28;20574;-69
2022/06/26 10:26:20;;;;;;;1.02;0.70;;;29.00;99.90;;;;;;5049144;28;20615;-69
2022/06/26 10:29:09;;;;;;;0.77;0.73;;;29.00;99.90;;;;;;5048272;28;20206;-69
2022/06/26 10:31:42;;;;;;;1.65;1.00;;;29.10;99.90;;;;;;5046095;28;20202;-70
2022/06/26 10:34:13;;;;;;;1.05;0.77;;;29.50;99.90;;;;;;5048914;28;20207;-70
2022/06/26 10:36:40;;;;;;;0.90;0.80;;;29.80;99.90;;;;;;5048829;28;20245;-69
2022/06/26 10:39:07;;;;;;;1.35;0.75;;;30.10;99.90;;;;;;5048729;28;20223;-69
2022/06/26 10:44:54;;;;;;;0.70;0.70;;;30.70;99.90;;;;;;5044975;28;20301;-68
2022/06/26 10:47:21;;;;;;;0.80;0.80;;;30.80;99.90;;;;;;5045704;28;20196;-68
2022/06/26 10:49:52;;;;;;;0.90;0.80;;;30.60;99.90;;;;;;5045598;28;20195;-67
2022/06/26 10:52:29;;;;;;;0.70;0.70;;;30.50;99.90;;;;;;5043096;28;20195;-68
2022/06/26 10:55:00;;;;;;;2.15;0.88;;;30.50;99.90;;;;;;5045723;28;20231;-67
2022/06/26 10:57:37;;;;;;;1.35;1.00;;;30.60;99.90;;;;;;5045078;28;20198;-67
2022/06/26 11:00:12;;;;;;;1.00;0.80;;;30.80;99.90;;;;;;5047761;28;20215;-67
2022/06/26 11:02:41;;;;;;;1.05;0.95;;;30.40;99.90;;;;;;5048851;28;20198;-68
2022/06/26 11:05:09;;;;;;;1.25;1.15;;;30.60;99.90;;;;;;5046650;28;20231;-67
2022/06/26 11:07:51;;;;;;;1.10;1.00;;;30.40;99.90;;;;;;5043841;28;20592;-67
2022/06/26 11:10:20;;;;;;;1.17;0.98;;;30.50;99.90;;;;;;5042168;28;20603;-67
2022/06/26 11:12:49;;;;;;;1.00;0.75;;;30.80;99.90;;;;;;5044401;28;20210;-67
2022/06/26 11:15:32;;;;;;;3.13;1.38;;;30.80;99.90;;;;;;5042782;28;20222;-67
2022/06/26 11:18:04;;;;;;;1.60;0.93;;;30.70;99.90;;;;;;5046306;28;20222;-67
2022/06/26 11:20:46;;;;;;;1.35;1.13;;;30.80;99.90;;;;;;5046618;28;20222;-67
2022/06/26 11:23:18;;;;;;;1.23;1.00;;;31.20;99.90;;;;;;5041413;28;20224;-67
2022/06/26 11:25:52;;;;;;;1.13;1.02;;;31.40;99.90;;;;;;5046056;28;20229;-67
2022/06/26 11:28:19;;;;;;;1.90;1.60;;;31.20;99.90;;;;;;5041296;28;20689;-68
2022/06/26 11:30:47;;;;;;;1.88;1.20;;;31.20;99.90;;;;;;5046249;28;20219;-69
2022/06/26 11:33:23;;;;;;;3.47;3.00;;;31.40;99.90;;;;;;5047298;28;20195;-69
2022/06/26 11:35:51;;;;;;;3.00;2.55;;;31.10;99.90;;;;;;5045258;28;20250;-69
2022/06/26 11:38:18;;;;;;;1.38;1.27;;;30.90;99.90;;;;;;5043837;28;20227;-69
2022/06/26 11:40:46;;;;;;;1.40;1.30;;;30.40;99.90;;;;;;5041257;28;20222;-69
2022/06/26 11:43:14;;;;;;;4.43;3.90;;;30.00;99.90;;;;;;5045600;28;20224;-69
2022/06/26 11:45:42;;;;;;;4.43;2.20;;;30.20;99.90;;;;;;5045114;28;20215;-69
2022/06/26 11:48:15;;;;;;;4.30;3.33;;;29.90;99.90;;;;;;5046873;28;20192;-69
2022/06/26 11:50:49;;;;;;;2.67;1.75;;;29.90;99.90;;;;;;5045583;28;20199;-69
2022/06/26 11:53:26;;;;;;;1.77;1.50;;;30.10;99.90;;;;;;5040515;28;20199;-69
2022/06/26 11:55:55;;;;;;;3.38;2.95;;;30.30;99.90;;;;;;5045048;28;20725;-69
2022/06/26 11:58:25;;;;;;;5.93;4.65;;;30.30;99.90;;;;;;5042863;28;20569;-69
2022/06/26 12:01:08;;;;;;;3.80;3.40;;;30.50;99.90;;;;;;5042502;28;20224;-69
2022/06/26 12:03:48;;;;;;;4.47;2.65;;;30.30;99.90;;;;;;5046180;28;20206;-69
2022/06/26 12:06:38;;;;;;;4.55;3.20;;;29.80;99.90;;;;;;5042756;28;20215;-69
2022/06/26 12:09:20;;;;;;;2.58;2.13;;;29.80;99.90;;;;;;5044713;28;20195;-69
2022/06/26 12:11:50;;;;;;;1.52;1.42;;;29.80;99.90;;;;;;5043329;28;20313;-69
2022/06/26 12:14:20;;;;;;;1.50;1.40;;;29.90;99.90;;;;;;5039969;28;20481;-69
2022/06/26 12:16:50;;;;;;;2.08;1.60;;;29.50;99.90;;;;;;5043021;28;20198;-70
2022/06/26 12:19:18;;;;;;;1.80;1.70;;;29.40;99.90;;;;;;5039752;28;20215;-69
2022/06/26 12:21:46;;;;;;;2.25;1.50;;;29.60;99.90;;;;;;5042507;28;20604;-69
2022/06/26 12:24:14;;;;;;;1.40;1.30;;;29.70;99.90;;;;;;5039168;28;20214;-69
2022/06/26 12:26:41;;;;;;;1.52;1.42;;;30.20;99.90;;;;;;5044590;28;20207;-69
2022/06/26 12:29:18;;;;;;;4.75;1.60;;;30.20;99.90;;;;;;5042612;28;20199;-69
2022/06/26 12:31:52;;;;;;;2.30;1.70;;;30.20;99.90;;;;;;5041092;28;20685;-68
2022/06/26 12:34:19;;;;;;;3.42;1.30;;;30.20;99.90;;;;;;5030244;28;20700;-69
2022/06/26 12:36:46;;;;;;;2.22;1.40;;;30.30;99.90;;;;;;5041641;28;20197;-69
2022/06/26 12:39:15;;;;;;;1.60;1.50;;;30.10;99.90;;;;;;5042388;28;20267;-69
2022/06/26 12:42:01;;;;;;;1.60;1.50;;;30.00;99.90;;;;;;5041766;28;20188;-69
2022/06/26 12:44:28;;;;;;;1.63;1.52;;;29.70;99.90;;;;;;5045043;28;20215;-69
2022/06/26 12:46:55;;;;;;;1.90;1.58;;;29.60;99.90;;;;;;5041287;28;20191;-69
2022/06/26 12:49:22;;;;;;;1.50;1.40;;;29.60;99.90;;;;;;5043699;28;20202;-69
2022/06/26 12:51:49;;;;;;;2.35;1.55;;;29.80;99.90;;;;;;5042707;28;20202;-69
2022/06/26 12:54:15;;;;;;;1.88;1.73;;;29.90;99.90;;;;;;5044513;28;20221;-70
2022/06/26 12:56:42;;;;;;;2.70;1.50;;;30.00;99.90;;;;;;5038523;28;20202;-69
2022/06/26 12:59:09;;;;;;;2.17;1.60;;;30.10;99.90;;;;;;5045319;28;20261;-69
2022/06/26 13:01:35;;;;;;;2.05;1.58;;;30.30;99.90;;;;;;5044050;28;20731;-69
2022/06/26 13:04:03;;;;;;;1.85;1.60;;;30.00;99.90;;;;;;5042459;28;20195;-69
2022/06/26 13:06:30;;;;;;;1.40;1.30;;;30.10;99.90;;;;;;5039370;28;20191;-69
2022/06/26 13:08:57;;;;;;;2.50;1.30;;;30.30;99.90;;;;;;5041176;28;20196;-69
2022/06/26 13:11:24;;;;;;;1.77;1.40;;;30.40;99.90;;;;;;5038817;28;20281;-69
2022/06/26 13:13:52;;;;;;;1.40;1.30;;;30.70;99.90;;;;;;5041656;28;20213;-69